createdAt,value
2023-04-29T00:02:19.548Z,94854.75
2023-04-29T00:04:47.396Z,94852.97
2023-04-29T00:07:16.084Z,94851.19
2023-04-29T00:09:43.857Z,94848.72
2023-04-29T00:12:12.059Z,94840.88
2023-04-29T00:14:39.691Z,94848.72
2023-04-29T00:17:09.088Z,94850.34
2023-04-29T00:19:36.964Z,94837.28
2023-04-29T00:22:04.603Z,94838.13
2023-04-29T00:24:32.188Z,94833.84
2023-04-29T00:26:59.837Z,94836.31
2023-04-29T00:29:27.790Z,94829.47
2023-04-29T00:31:55.674Z,94832.06
2023-04-29T00:34:24.615Z,94835.50
2023-04-29T00:36:52.266Z,94835.50
2023-04-29T00:39:19.835Z,94840.72
2023-04-29T00:41:47.519Z,94828.47
2023-04-29T00:44:15.349Z,94830.28
2023-04-29T00:46:43.297Z,94831.25
2023-04-29T00:49:12.358Z,94827.81
2023-04-29T00:51:42.623Z,94825.19
2023-04-29T00:54:11.972Z,94831.25
2023-04-29T00:56:41.499Z,94823.41
2023-04-29T00:59:11.299Z,94826.84
2023-04-29T01:01:39.830Z,94826.03
2023-04-29T01:04:08.258Z,94827.81
2023-04-29T01:06:49.782Z,94824.41
2023-04-29T01:09:33.803Z,94830.41
2023-04-29T01:12:12.498Z,94830.41
2023-04-29T01:14:40.726Z,94826.19
2023-04-29T01:17:16.677Z,94823.59
2023-04-29T01:19:49.090Z,94821.78
2023-04-29T01:22:20.020Z,94825.38
2023-04-29T01:24:49.318Z,94819.31
2023-04-29T01:27:29.394Z,94833.19
2023-04-29T01:30:03.987Z,94821.94
2023-04-29T01:32:42.754Z,94821.94
2023-04-29T01:35:20.479Z,94817.53
2023-04-29T01:37:55.392Z,94820.97
2023-04-29T01:40:27.952Z,94814.09
2023-04-29T01:43:03.000Z,94821.09
2023-04-29T01:45:33.627Z,94818.50
2023-04-29T01:48:03.001Z,94813.28
2023-04-29T01:50:30.753Z,94818.50
2023-04-29T01:52:58.494Z,94816.72
2023-04-29T01:55:27.824Z,94817.53
2023-04-29T01:57:55.606Z,94812.31
2023-04-29T02:00:23.604Z,94813.94
2023-04-29T02:02:51.412Z,94821.94
2023-04-29T02:05:19.065Z,94816.56
2023-04-29T02:07:47.628Z,94814.91
2023-04-29T02:10:15.355Z,94819.19
2023-04-29T02:12:44.272Z,94822.59
2023-04-29T02:15:12.219Z,94824.41
2023-04-29T02:17:39.834Z,94819.97
2023-04-29T02:20:10.186Z,94821.78
2023-04-29T02:22:37.816Z,94815.75
2023-04-29T02:25:06.491Z,94815.56
2023-04-29T02:27:34.132Z,94817.53
2023-04-29T02:30:04.792Z,94818.34
2023-04-29T02:32:33.200Z,94817.53
2023-04-29T02:35:00.856Z,94816.72
2023-04-29T02:37:28.972Z,94811.47
2023-04-29T02:39:56.571Z,94815.09
2023-04-29T02:42:24.191Z,94814.09
2023-04-29T02:44:51.816Z,94817.69
2023-04-29T02:47:20.773Z,94818.50
2023-04-29T02:49:48.362Z,94815.88
2023-04-29T02:52:16.929Z,94812.47
2023-04-29T02:54:44.825Z,94821.09
2023-04-29T02:57:12.530Z,94817.69
2023-04-29T02:59:40.091Z,94823.72
2023-04-29T03:02:07.724Z,94822.09
2023-04-29T03:04:36.651Z,94827.31
2023-04-29T03:07:04.858Z,94825.66
2023-04-29T03:09:32.476Z,94832.53
2023-04-29T03:12:00.122Z,94829.94
2023-04-29T03:14:28.035Z,94829.94
2023-04-29T03:16:56.505Z,94823.88
2023-04-29T03:19:24.193Z,94824.88
2023-04-29T03:21:54.004Z,94824.72
2023-04-29T03:24:22.120Z,94821.28
2023-04-29T03:26:49.756Z,94827.31
2023-04-29T03:29:17.341Z,94823.88
2023-04-29T03:31:45.192Z,94826.50
2023-04-29T03:34:14.489Z,94816.06
2023-04-29T03:36:42.091Z,94823.88
2023-04-29T03:39:11.904Z,94822.09
2023-04-29T03:44:07.388Z,94822.91
2023-04-29T03:46:35.124Z,94822.09
2023-04-29T03:49:03.479Z,94826.34
2023-04-29T03:51:31.286Z,94823.72
2023-04-29T03:53:59.209Z,94828.16
2023-04-29T03:56:28.145Z,94826.34
2023-04-29T03:58:55.750Z,94825.53
2023-04-29T04:01:23.669Z,94821.09
2023-04-29T04:03:51.476Z,94825.53
2023-04-29T04:06:19.241Z,94826.34
2023-04-29T04:08:46.908Z,94829.13
2023-04-29T04:11:15.182Z,94823.88
2023-04-29T04:13:44.456Z,94829.94
2023-04-29T04:16:12.446Z,94836.00
2023-04-29T04:18:40.530Z,94846.25
2023-04-29T04:21:08.660Z,94837.59
2023-04-29T04:23:36.316Z,94837.59
2023-04-29T04:26:03.939Z,94844.47
2023-04-29T04:28:31.586Z,94852.31
2023-04-29T04:31:00.526Z,94847.09
2023-04-29T04:33:28.316Z,94854.75
2023-04-29T04:35:56.128Z,94840.88
2023-04-29T04:38:25.501Z,94849.53
2023-04-29T04:40:53.153Z,94857.38
2023-04-29T04:43:21.162Z,94853.94
2023-04-29T04:45:48.853Z,94857.38
2023-04-29T04:48:17.876Z,94857.19
2023-04-29T04:50:45.453Z,94859.81
2023-04-29T04:53:13.104Z,94867.81
2023-04-29T04:55:40.672Z,94858.19
2023-04-29T04:58:08.286Z,94855.59
2023-04-29T05:00:35.900Z,94857.38
2023-04-29T05:03:03.582Z,94860.81
2023-04-29T05:05:34.447Z,94860.97
2023-04-29T05:08:02.156Z,94866.84
2023-04-29T05:10:29.733Z,94861.63
2023-04-29T05:12:57.569Z,94870.25
2023-04-29T05:15:27.275Z,94862.44
2023-04-29T05:17:54.879Z,94861.63
2023-04-29T05:20:22.491Z,94874.53
2023-04-29T05:22:51.431Z,94872.75
2023-04-29T05:25:19.033Z,94873.53
2023-04-29T05:27:46.689Z,94875.34
2023-04-29T05:30:14.384Z,94882.19
2023-04-29T05:32:42.109Z,94883.19
2023-04-29T05:35:10.371Z,94883.19
2023-04-29T05:37:38.010Z,94890.03
2023-04-29T05:40:10.297Z,94899.66
2023-04-29T05:42:37.970Z,94887.41
2023-04-29T05:45:06.343Z,94892.66
2023-04-29T05:47:34.028Z,94898.69
2023-04-29T05:50:01.664Z,94894.44
2023-04-29T05:52:29.400Z,94899.66
2023-04-29T05:54:57.829Z,94899.66
2023-04-29T05:57:27.047Z,94902.28
2023-04-29T05:59:55.242Z,94903.09
2023-04-29T06:02:23.384Z,94911.75
2023-04-29T06:04:51.567Z,94911.75
2023-04-29T06:07:20.352Z,94912.72
2023-04-29T06:09:51.253Z,94910.13
2023-04-29T06:12:19.159Z,94908.31
2023-04-29T06:14:48.271Z,94915.19
2023-04-29T06:17:16.278Z,94916.03
2023-04-29T06:19:46.899Z,94922.03
2023-04-29T06:22:14.747Z,94924.66
2023-04-29T06:24:42.461Z,94929.09
2023-04-29T06:27:10.327Z,94922.88
2023-04-29T06:29:38.078Z,94937.59
2023-04-29T06:32:07.200Z,94931.53
2023-04-29T06:34:34.981Z,94935.94
2023-04-29T06:37:02.597Z,94942.00
2023-04-29T06:39:30.212Z,94936.75
2023-04-29T06:41:58.828Z,94935.75
2023-04-29T06:44:26.528Z,94941.00
2023-04-29T06:46:54.197Z,94942.66
2023-04-29T06:49:23.213Z,94941.00
2023-04-29T06:51:50.833Z,94943.47
2023-04-29T06:54:18.439Z,94945.25
2023-04-29T06:56:47.182Z,94945.25
2023-04-29T06:59:15.318Z,94950.47
2023-04-29T07:01:44.637Z,94945.25
2023-04-29T07:04:13.633Z,94955.72
2023-04-29T07:06:46.687Z,94944.44
2023-04-29T07:09:14.937Z,94948.84
2023-04-29T07:11:42.728Z,94949.66
2023-04-29T07:14:10.377Z,94948.03
2023-04-29T07:16:38.269Z,94947.03
2023-04-29T07:19:05.989Z,94948.84
2023-04-29T07:21:33.583Z,94937.59
2023-04-29T07:24:04.896Z,94948.84
2023-04-29T07:26:32.673Z,94943.78
2023-04-29T07:29:00.304Z,94942.00
2023-04-29T07:31:28.268Z,94945.44
2023-04-29T07:33:57.061Z,94954.06
2023-04-29T07:36:24.674Z,94938.38
2023-04-29T07:38:52.394Z,94948.84
2023-04-29T07:41:21.547Z,94948.84
2023-04-29T07:43:49.134Z,94941.16
2023-04-29T07:46:18.312Z,94955.06
2023-04-29T07:48:46.199Z,94944.75
2023-04-29T07:51:14.872Z,94955.22
2023-04-29T07:53:43.135Z,94951.63
2023-04-29T07:56:10.999Z,94962.06
2023-04-29T07:58:39.950Z,94950.00
2023-04-29T08:01:08.623Z,94950.00
2023-04-29T08:03:38.935Z,94953.41
2023-04-29T08:06:08.638Z,94953.41
2023-04-29T08:08:36.548Z,94948.16
2023-04-29T08:11:04.596Z,94957.84
2023-04-29T08:13:32.244Z,94955.22
2023-04-29T08:16:01.267Z,94957.66
2023-04-29T08:18:28.971Z,94950.66
2023-04-29T08:20:56.555Z,94945.44
2023-04-29T08:23:24.181Z,94949.66
2023-04-29T08:25:53.518Z,94941.81
2023-04-29T08:28:21.091Z,94939.22
2023-04-29T08:30:49.132Z,94941.81
2023-04-29T08:33:18.151Z,94952.28
2023-04-29T08:35:45.792Z,94958.50
2023-04-29T08:38:13.437Z,94955.88
2023-04-29T08:40:43.827Z,94948.03
2023-04-29T08:43:11.629Z,94968.13
2023-04-29T08:45:40.737Z,94960.28
2023-04-29T08:48:09.143Z,94949.81
2023-04-29T08:50:40.604Z,94956.84
2023-04-29T08:53:08.852Z,94960.44
2023-04-29T08:55:37.842Z,94958.63
2023-04-29T08:58:06.132Z,94952.59
2023-04-29T09:00:35.291Z,94950.78
2023-04-29T09:03:13.201Z,94946.56
2023-04-29T09:05:44.521Z,94952.59
2023-04-29T09:08:13.480Z,94950.78
2023-04-29T09:10:43.551Z,94956.19
2023-04-29T09:13:24.317Z,94950.13
2023-04-29T09:15:52.132Z,94948.34
2023-04-29T09:18:44.113Z,94949.31
2023-04-29T09:21:21.105Z,94950.94
2023-04-29T09:23:51.464Z,94950.94
2023-04-29T09:26:19.375Z,94950.13
2023-04-29T09:28:47.832Z,94950.94
2023-04-29T09:31:15.774Z,94944.06
2023-04-29T09:33:51.539Z,94936.25
2023-04-29T09:36:44.844Z,94932.66
2023-04-29T09:39:15.037Z,94930.06
2023-04-29T09:41:59.228Z,94929.41
2023-04-29T09:44:30.013Z,94937.06
2023-04-29T09:47:02.538Z,94942.28
2023-04-29T09:49:32.783Z,94940.66
2023-04-29T09:52:03.960Z,94953.56
2023-04-29T09:54:32.852Z,94945.72
2023-04-29T09:57:02.266Z,94954.53
2023-04-29T09:59:29.970Z,94954.41
2023-04-29T10:01:58.965Z,94937.88
2023-04-29T10:04:28.085Z,94938.72
2023-04-29T10:06:57.310Z,94940.50
2023-04-29T10:09:26.253Z,94953.56
2023-04-29T10:11:54.831Z,94935.28
2023-04-29T10:14:25.865Z,94940.34
2023-04-29T10:17:00.617Z,94939.53
2023-04-29T10:19:35.257Z,94936.94
2023-04-29T10:22:08.488Z,94930.06
2023-04-29T10:24:40.067Z,94941.31
2023-04-29T10:27:09.289Z,94937.88
2023-04-29T10:29:38.932Z,94932.66
2023-04-29T10:32:09.834Z,94930.06
2023-04-29T10:34:38.859Z,94940.50
2023-04-29T10:37:07.326Z,94939.69
2023-04-29T10:39:45.143Z,94936.25
2023-04-29T10:42:22.300Z,94935.28
2023-04-29T10:45:20.870Z,94931.84
2023-04-29T10:48:14.046Z,94931.00
2023-04-29T10:51:02.533Z,94937.88
2023-04-29T10:53:30.764Z,94926.78
2023-04-29T10:56:05.774Z,94941.47
2023-04-29T10:58:36.561Z,94929.41
2023-04-29T11:01:04.854Z,94939.84
2023-04-29T11:03:50.699Z,94938.84
2023-04-29T11:06:18.499Z,94930.06
2023-04-29T11:08:46.246Z,94931.84
2023-04-29T11:11:16.041Z,94925.78
2023-04-29T11:13:47.126Z,94926.63
2023-04-29T11:16:15.024Z,94925.66
2023-04-29T11:19:07.481Z,94920.44
2023-04-29T11:21:36.606Z,94923.88
2023-04-29T11:24:06.338Z,94927.28
2023-04-29T11:26:35.880Z,94928.09
2023-04-29T11:29:03.908Z,94933.31
2023-04-29T11:31:32.317Z,94927.13
2023-04-29T11:34:00.313Z,94934.16
2023-04-29T11:36:28.426Z,94933.16
2023-04-29T11:38:56.322Z,94925.31
2023-04-29T11:41:24.345Z,94927.13
2023-04-29T11:43:58.130Z,94932.34
2023-04-29T11:46:26.145Z,94945.44
2023-04-29T11:48:53.791Z,94941.81
2023-04-29T11:51:22.489Z,94935.63
2023-04-29T11:53:50.197Z,94943.59
2023-04-29T11:56:17.862Z,94936.59
2023-04-29T11:58:45.575Z,94931.38
2023-04-29T12:01:14.693Z,94933.97
2023-04-29T12:03:45.240Z,94934.97
2023-04-29T12:06:15.017Z,94948.03
2023-04-29T12:08:42.653Z,94936.75
2023-04-29T12:11:10.245Z,94940.19
2023-04-29T12:13:38.299Z,94947.03
2023-04-29T12:16:06.907Z,94939.38
2023-04-29T12:18:36.166Z,94936.75
2023-04-29T12:21:03.841Z,94944.59
2023-04-29T12:23:31.715Z,94940.19
2023-04-29T12:26:02.652Z,94937.59
2023-04-29T12:28:30.660Z,94940.19
2023-04-29T12:31:00.063Z,94941.16
2023-04-29T12:33:29.411Z,94936.09
2023-04-29T12:35:59.735Z,94935.94
2023-04-29T12:38:28.965Z,94945.56
2023-04-29T12:40:57.526Z,94942.00
2023-04-29T12:43:28.419Z,94951.63
2023-04-29T12:46:01.509Z,94944.59
2023-04-29T12:48:33.462Z,94946.38
2023-04-29T12:51:03.242Z,94942.94
2023-04-29T12:53:31.860Z,94943.78
2023-04-29T12:55:59.792Z,94952.59
2023-04-29T12:58:30.014Z,94948.84
2023-04-29T13:00:57.966Z,94953.25
2023-04-29T13:03:25.984Z,94951.44
2023-04-29T13:05:54.789Z,94952.44
2023-04-29T13:08:23.920Z,94953.25
2023-04-29T13:10:51.587Z,94947.22
2023-04-29T13:13:19.457Z,94942.81
2023-04-29T13:15:47.455Z,94951.63
2023-04-29T13:18:15.224Z,94956.66
2023-04-29T13:20:42.849Z,94960.09
2023-04-29T13:23:10.650Z,94952.44
2023-04-29T13:25:39.592Z,94946.22
2023-04-29T13:28:07.591Z,94944.44
2023-04-29T13:30:35.316Z,94947.88
2023-04-29T13:33:09.954Z,94950.47
2023-04-29T13:35:41.526Z,94936.59
2023-04-29T13:38:09.676Z,94941.50
2023-04-29T13:40:42.907Z,94942.47
2023-04-29T13:43:20.937Z,94939.06
2023-04-29T13:45:53.207Z,94940.84
2023-04-29T13:53:56.830Z,94942.81
2023-04-29T14:01:54.226Z,94936.75
2023-04-29T14:04:02.632Z,94933.97
2023-04-29T14:06:30.483Z,94939.38
2023-04-29T14:08:58.316Z,94936.75
2023-04-29T14:11:27.259Z,94938.38
2023-04-29T14:13:54.874Z,94937.72
2023-04-29T14:16:22.558Z,94934.16
2023-04-29T14:18:50.211Z,94936.75
2023-04-29T14:21:18.037Z,94945.56
2023-04-29T14:23:45.731Z,94940.34
2023-04-29T14:28:45.191Z,94944.59
2023-04-29T14:31:13.840Z,94963.72
2023-04-29T14:33:41.605Z,94960.28
2023-04-29T14:36:10.308Z,94964.50
2023-04-29T14:38:37.893Z,94965.50
2023-04-29T14:41:05.670Z,94971.56
2023-04-29T14:43:33.298Z,94976.78
2023-04-29T14:46:02.333Z,94978.56
2023-04-29T14:48:30.059Z,94982.81
2023-04-29T14:50:57.836Z,94971.56
2023-04-29T14:53:25.458Z,94987.22
2023-04-29T14:55:53.569Z,94985.41
2023-04-29T14:58:21.228Z,94986.25
2023-04-29T15:00:49.314Z,94977.56
2023-04-29T15:03:22.372Z,94985.41
2023-04-29T15:05:50.995Z,94981.84
2023-04-29T15:08:19.075Z,94985.41
2023-04-29T15:10:47.503Z,94982.00
2023-04-29T15:13:15.389Z,94989.84
2023-04-29T15:15:43.037Z,94998.47
2023-04-29T15:18:10.675Z,95000.28
2023-04-29T15:20:39.874Z,95002.91
2023-04-29T15:23:08.452Z,94999.47
2023-04-29T15:25:36.600Z,95010.75
2023-04-29T15:28:04.656Z,95005.53
2023-04-29T15:30:32.878Z,95005.53
2023-04-29T15:33:00.822Z,95011.53
2023-04-29T15:35:28.616Z,95008.13
2023-04-29T15:37:59.169Z,95019.38
2023-04-29T15:40:26.852Z,95024.59
2023-04-29T15:42:54.458Z,95021.19
2023-04-29T15:45:22.049Z,95023.81
2023-04-29T15:47:49.659Z,95036.06
2023-04-29T15:50:17.347Z,95030.00
2023-04-29T15:52:44.974Z,95038.50
2023-04-29T15:55:13.915Z,95038.66
2023-04-29T15:57:42.736Z,95039.50
2023-04-29T16:00:11.500Z,95042.09
2023-04-29T16:02:39.273Z,95034.25
2023-04-29T16:05:07.361Z,95042.91
2023-04-29T16:07:35.596Z,95043.06
2023-04-29T16:10:04.749Z,95051.72
2023-04-29T16:12:33.939Z,95049.94
2023-04-29T16:15:01.548Z,95056.94
2023-04-29T16:17:29.616Z,95055.97
2023-04-29T16:19:57.254Z,95044.72
2023-04-29T16:22:24.849Z,95060.22
2023-04-29T16:24:52.559Z,95054.19
2023-04-29T16:27:20.188Z,95057.63
2023-04-29T16:29:49.310Z,95066.41
2023-04-29T16:32:17.227Z,95068.06
2023-04-29T16:34:44.856Z,95070.69
2023-04-29T16:37:12.693Z,95070.69
2023-04-29T16:39:40.733Z,95066.41
2023-04-29T16:42:08.630Z,95075.91
2023-04-29T16:44:36.217Z,95074.25
2023-04-29T16:47:05.185Z,95081.13
2023-04-29T16:49:32.844Z,95088.16
2023-04-29T16:52:00.440Z,95086.34
2023-04-29T16:54:28.084Z,95082.91
2023-04-29T16:56:55.675Z,95076.88
2023-04-29T16:59:23.275Z,95089.94
2023-04-29T17:01:51.177Z,95092.53
2023-04-29T17:04:20.211Z,95088.97
2023-04-29T17:06:48.518Z,95090.75
2023-04-29T17:09:16.708Z,95099.59
2023-04-29T17:11:44.268Z,95100.38
2023-04-29T17:14:11.898Z,95102.19
2023-04-29T17:16:39.551Z,95099.59
2023-04-29T17:19:07.207Z,95103.81
2023-04-29T17:21:36.240Z,95104.00
2023-04-29T17:24:04.448Z,95099.59
2023-04-29T17:26:32.028Z,95115.25
2023-04-29T17:28:59.920Z,95110.03
2023-04-29T17:31:35.457Z,95116.06
2023-04-29T17:34:18.082Z,95122.13
2023-04-29T17:36:48.029Z,95120.50
2023-04-29T17:39:16.274Z,95129.94
2023-04-29T17:41:43.995Z,95127.50
2023-04-29T17:44:11.677Z,95126.50
2023-04-29T17:46:39.975Z,95129.13
2023-04-29T17:49:07.595Z,95133.56
2023-04-29T17:51:35.206Z,95140.56
2023-04-29T17:54:05.760Z,95144.00
2023-04-29T17:56:34.868Z,95140.41
2023-04-29T17:59:03.087Z,95154.28
2023-04-29T18:01:30.745Z,95150.03
2023-04-29T18:03:58.579Z,95152.50
2023-04-29T18:06:28.130Z,95154.28
2023-04-29T18:08:55.825Z,95162.13
2023-04-29T18:11:25.137Z,95165.56
2023-04-29T18:13:53.986Z,95163.91
2023-04-29T18:16:21.700Z,95164.59
2023-04-29T18:18:51.329Z,95167.19
2023-04-29T18:21:21.615Z,95167.19
2023-04-29T18:23:49.237Z,95177.53
2023-04-29T18:26:18.254Z,95184.53
2023-04-29T18:28:48.112Z,95177.66
2023-04-29T18:31:17.026Z,95183.72
2023-04-29T18:33:45.322Z,95183.53
2023-04-29T18:36:14.147Z,95189.75
2023-04-29T18:38:42.167Z,95185.38
2023-04-29T18:41:09.977Z,95190.59
2023-04-29T18:43:37.624Z,95192.38
2023-04-29T18:46:06.718Z,95195.81
2023-04-29T18:48:35.764Z,95203.66
2023-04-29T18:51:04.364Z,95202.00
2023-04-29T18:53:32.501Z,95207.22
2023-04-29T18:56:00.202Z,95208.88
2023-04-29T18:58:27.869Z,95204.63
2023-04-29T19:00:57.636Z,95197.59
2023-04-29T19:03:27.169Z,95206.25
2023-04-29T19:05:54.783Z,95212.44
2023-04-29T19:08:22.406Z,95217.69
2023-04-29T19:10:50.629Z,95216.84
2023-04-29T19:13:18.224Z,95224.69
2023-04-29T19:15:50.448Z,95226.34
2023-04-29T19:18:19.976Z,95221.28
2023-04-29T19:20:49.295Z,95220.28
2023-04-29T19:23:17.050Z,95229.13
2023-04-29T19:25:44.722Z,95220.28
2023-04-29T19:28:12.324Z,95227.97
2023-04-29T19:30:39.996Z,95230.75
2023-04-29T19:33:08.421Z,95231.56
2023-04-29T19:35:36.729Z,95235.00
2023-04-29T19:38:05.669Z,95234.03
2023-04-29T19:40:33.322Z,95243.66
2023-04-29T19:43:00.981Z,95246.25
2023-04-29T19:45:28.706Z,95258.53
2023-04-29T19:47:56.453Z,95260.16
2023-04-29T19:50:24.328Z,95261.16
2023-04-29T19:52:51.990Z,95267.16
2023-04-29T19:55:21.065Z,95261.94
2023-04-29T19:57:49.392Z,95270.59
2023-04-29T20:00:17.382Z,95268.97
2023-04-29T20:02:45.602Z,95275.00
2023-04-29T20:05:13.644Z,95274.22
2023-04-29T20:07:41.386Z,95268.16
2023-04-29T20:10:10.077Z,95265.38
2023-04-29T20:12:40.397Z,95265.53
2023-04-29T20:15:09.579Z,95266.38
2023-04-29T20:17:37.491Z,95258.66
2023-04-29T20:20:08.894Z,95262.09
2023-04-29T20:22:36.593Z,95259.50
2023-04-29T20:25:04.251Z,95256.03
2023-04-29T20:27:31.886Z,95251.66
2023-04-29T20:30:00.937Z,95257.03
2023-04-29T20:32:28.659Z,95258.66
2023-04-29T20:34:56.273Z,95253.44
2023-04-29T20:37:23.912Z,95263.88
2023-04-29T20:39:51.704Z,95262.25
2023-04-29T20:42:20.243Z,95269.13
2023-04-29T20:44:47.951Z,95271.88
2023-04-29T20:47:16.919Z,95267.50
2023-04-29T20:49:44.501Z,95271.72
2023-04-29T20:52:12.697Z,95270.09
2023-04-29T20:54:40.294Z,95272.72
2023-04-29T20:57:07.907Z,95273.53
2023-04-29T20:59:35.550Z,95272.72
2023-04-29T21:02:03.271Z,95273.53
2023-04-29T21:04:32.338Z,95277.94
2023-04-29T21:06:59.965Z,95282.19
2023-04-29T21:09:27.593Z,95281.38
2023-04-29T21:11:55.244Z,95270.94
2023-04-29T21:14:22.874Z,95278.78
2023-04-29T21:16:50.501Z,95276.16
2023-04-29T21:19:18.117Z,95282.19
2023-04-29T21:21:47.073Z,95284.78
2023-04-29T21:24:14.682Z,95289.06
2023-04-29T21:26:42.547Z,95294.28
2023-04-29T21:29:10.548Z,95290.84
2023-04-29T21:31:38.159Z,95295.25
2023-04-29T21:34:06.072Z,95287.41
2023-04-29T21:36:33.871Z,95290.00
2023-04-29T21:39:02.851Z,95296.22
2023-04-29T21:41:37.332Z,95299.66
2023-04-29T21:44:06.966Z,95294.44
2023-04-29T21:46:35.560Z,95298.00
2023-04-29T21:49:03.923Z,95298.84
2023-04-29T21:51:32.655Z,95301.28
2023-04-29T21:54:05.875Z,95298.00
2023-04-29T21:56:33.529Z,95306.69
2023-04-29T21:59:01.250Z,95302.41
2023-04-29T22:01:40.507Z,95300.63
2023-04-29T22:04:08.491Z,95294.56
2023-04-29T22:06:36.194Z,95300.63
2023-04-29T22:09:06.537Z,95300.63
2023-04-29T22:11:34.161Z,95296.34
2023-04-29T22:14:01.867Z,95299.81
2023-04-29T22:16:29.708Z,95302.41
2023-04-29T22:18:58.225Z,95298.97
2023-04-29T22:21:27.792Z,95298.97
2023-04-29T22:23:55.735Z,95291.13
2023-04-29T22:26:25.382Z,95293.75
2023-04-29T22:28:53.044Z,95292.13
2023-04-29T22:31:20.723Z,95295.56
2023-04-29T22:33:48.414Z,95295.56
2023-04-29T22:36:16.112Z,95297.34
2023-04-29T22:38:43.715Z,95301.75
2023-04-29T22:41:11.767Z,95303.41
2023-04-29T22:43:40.763Z,95311.25
2023-04-29T22:46:08.579Z,95303.41
2023-04-29T22:48:36.283Z,95310.25
2023-04-29T22:51:03.912Z,95306.81
2023-04-29T22:53:31.614Z,95300.78
2023-04-29T22:56:01.853Z,95298.19
2023-04-29T22:58:29.499Z,95297.19
2023-04-29T23:00:59.151Z,95295.56
2023-04-29T23:03:27.976Z,95298.19
2023-04-29T23:05:59.378Z,95296.34
2023-04-29T23:08:27.318Z,95292.94
2023-04-29T23:10:55.013Z,95301.59
2023-04-29T23:13:22.681Z,95298.19
2023-04-29T23:15:50.656Z,95292.94
2023-04-29T23:18:20.005Z,95300.78
2023-04-29T23:20:47.947Z,95299.81
2023-04-29T23:23:15.694Z,95299.81
2023-04-29T23:25:43.384Z,95291.13
2023-04-29T23:28:11.018Z,95292.13
2023-04-29T23:30:38.655Z,95293.91
2023-04-29T23:33:06.252Z,95286.91
2023-04-29T23:35:35.333Z,95293.91
2023-04-29T23:38:02.929Z,95298.19
2023-04-29T23:40:31.758Z,95293.91
2023-04-29T23:42:59.530Z,95293.91
2023-04-29T23:45:27.492Z,95291.28
2023-04-29T23:47:55.233Z,95281.81
2023-04-29T23:50:22.864Z,95281.00
2023-04-29T23:52:51.999Z,95280.00
2023-04-29T23:55:20.521Z,95282.63
2023-04-29T23:57:48.434Z,95278.38
